sensor_id;sensor_type;location;lat;lon;timestamp;P1;durP1;ratioP1;P2;durP2;ratioP2
33188;SDS011;52601;53.070;10.600;2022-10-16T00:02:31;2.03;;;0.82;;
33188;SDS011;52601;53.070;10.600;2022-10-16T00:05:17;0.70;;;0.70;;
33188;SDS011;52601;53.070;10.600;2022-10-16T00:08:02;1.30;;;0.70;;
33188;SDS011;52601;53.070;10.600;2022-10-16T00:10:48;0.90;;;0.80;;
33188;SDS011;52601;53.070;10.600;2022-10-16T00:13:33;0.80;;;0.70;;
33188;SDS011;52601;53.070;10.600;2022-10-16T00:16:20;1.60;;;0.70;;
33188;SDS011;52601;53.070;10.600;2022-10-16T00:19:05;0.73;;;0.60;;
33188;SDS011;52601;53.070;10.600;2022-10-16T00:21:51;1.23;;;0.85;;
33188;SDS011;52601;53.070;10.600;2022-10-16T00:24:36;4.43;;;0.80;;
33188;SDS011;52601;53.070;10.600;2022-10-16T00:27:22;1.35;;;0.70;;
33188;SDS011;52601;53.070;10.600;2022-10-16T00:30:08;1.23;;;0.68;;
33188;SDS011;52601;53.070;10.600;2022-10-16T00:32:54;1.80;;;0.60;;
33188;SDS011;52601;53.070;10.600;2022-10-16T00:35:39;1.73;;;0.53;;
33188;SDS011;52601;53.070;10.600;2022-10-16T00:38:25;0.80;;;0.60;;
33188;SDS011;52601;53.070;10.600;2022-10-16T00:41:13;2.43;;;0.63;;
33188;SDS011;52601;53.070;10.600;2022-10-16T00:44:01;0.52;;;0.50;;
33188;SDS011;52601;53.070;10.600;2022-10-16T00:46:49;1.92;;;1.00;;
33188;SDS011;52601;53.070;10.600;2022-10-16T00:49:35;1.40;;;0.80;;
33188;SDS011;52601;53.070;10.600;2022-10-16T00:52:21;0.90;;;0.52;;
33188;SDS011;52601;53.070;10.600;2022-10-16T00:55:07;2.50;;;0.60;;
33188;SDS011;52601;53.070;10.600;2022-10-16T00:57:54;0.82;;;0.68;;
33188;SDS011;52601;53.070;10.600;2022-10-16T01:00:39;4.07;;;1.00;;
33188;SDS011;52601;53.070;10.600;2022-10-16T01:03:29;2.70;;;1.00;;
33188;SDS011;52601;53.070;10.600;2022-10-16T01:09:26;4.22;;;0.80;;
33188;SDS011;52601;53.070;10.600;2022-10-16T01:12:15;1.25;;;0.70;;
33188;SDS011;52601;53.070;10.600;2022-10-16T01:15:06;2.17;;;0.90;;
33188;SDS011;52601;53.070;10.600;2022-10-16T01:17:58;1.57;;;0.70;;
33188;SDS011;52601;53.070;10.600;2022-10-16T01:20:54;1.73;;;0.60;;
33188;SDS011;52601;53.070;10.600;2022-10-16T01:30:05;1.73;;;0.63;;
33188;SDS011;52601;53.070;10.600;2022-10-16T01:36:10;2.95;;;0.70;;
33188;SDS011;52601;53.070;10.600;2022-10-16T01:39:00;3.97;;;1.30;;
33188;SDS011;52601;53.070;10.600;2022-10-16T01:41:48;0.73;;;0.60;;
33188;SDS011;52601;53.070;10.600;2022-10-16T01:44:40;2.53;;;0.73;;
33188;SDS011;52601;53.070;10.600;2022-10-16T01:47:27;0.60;;;0.60;;
33188;SDS011;52601;53.070;10.600;2022-10-16T01:50:15;2.00;;;0.80;;
33188;SDS011;52601;53.070;10.600;2022-10-16T01:53:04;1.95;;;0.50;;
33188;SDS011;52601;53.070;10.600;2022-10-16T01:55:50;0.90;;;0.50;;
33188;SDS011;52601;53.070;10.600;2022-10-16T01:58:45;1.23;;;0.55;;
33188;SDS011;52601;53.070;10.600;2022-10-16T02:01:34;0.55;;;0.55;;
33188;SDS011;52601;53.070;10.600;2022-10-16T02:04:26;0.93;;;0.50;;
33188;SDS011;52601;53.070;10.600;2022-10-16T02:07:14;4.50;;;0.80;;
33188;SDS011;52601;53.070;10.600;2022-10-16T02:10:00;2.17;;;0.70;;
33188;SDS011;52601;53.070;10.600;2022-10-16T02:12:49;0.85;;;0.50;;
33188;SDS011;52601;53.070;10.600;2022-10-16T02:15:41;2.78;;;0.80;;
33188;SDS011;52601;53.070;10.600;2022-10-16T02:18:26;2.20;;;0.80;;
33188;SDS011;52601;53.070;10.600;2022-10-16T02:21:19;1.58;;;0.57;;
33188;SDS011;52601;53.070;10.600;2022-10-16T02:24:13;1.30;;;0.47;;
33188;SDS011;52601;53.070;10.600;2022-10-16T02:30:39;3.30;;;0.60;;
33188;SDS011;52601;53.070;10.600;2022-10-16T02:33:30;3.28;;;0.80;;
33188;SDS011;52601;53.070;10.600;2022-10-16T02:36:17;1.17;;;0.70;;
33188;SDS011;52601;53.070;10.600;2022-10-16T02:39:02;1.30;;;0.60;;
33188;SDS011;52601;53.070;10.600;2022-10-16T02:41:49;1.45;;;0.82;;
33188;SDS011;52601;53.070;10.600;2022-10-16T02:44:35;1.75;;;0.70;;
33188;SDS011;52601;53.070;10.600;2022-10-16T02:47:20;2.22;;;0.98;;
33188;SDS011;52601;53.070;10.600;2022-10-16T02:50:06;1.20;;;0.40;;
33188;SDS011;52601;53.070;10.600;2022-10-16T02:52:51;1.95;;;0.55;;
33188;SDS011;52601;53.070;10.600;2022-10-16T02:55:37;2.38;;;0.55;;
33188;SDS011;52601;53.070;10.600;2022-10-16T02:58:22;13.68;;;1.17;;
33188;SDS011;52601;53.070;10.600;2022-10-16T03:01:08;0.93;;;0.40;;
33188;SDS011;52601;53.070;10.600;2022-10-16T03:03:53;2.95;;;1.15;;
33188;SDS011;52601;53.070;10.600;2022-10-16T03:06:39;0.90;;;0.45;;
33188;SDS011;52601;53.070;10.600;2022-10-16T03:09:24;1.27;;;0.90;;
33188;SDS011;52601;53.070;10.600;2022-10-16T03:12:10;1.70;;;0.60;;
33188;SDS011;52601;53.070;10.600;2022-10-16T03:14:56;1.30;;;0.50;;
33188;SDS011;52601;53.070;10.600;2022-10-16T03:17:42;0.57;;;0.50;;
33188;SDS011;52601;53.070;10.600;2022-10-16T03:20:28;2.92;;;0.60;;
33188;SDS011;52601;53.070;10.600;2022-10-16T03:23:13;1.90;;;0.50;;
33188;SDS011;52601;53.070;10.600;2022-10-16T03:25:59;3.05;;;0.63;;
33188;SDS011;52601;53.070;10.600;2022-10-16T03:28:45;1.30;;;0.60;;
33188;SDS011;52601;53.070;10.600;2022-10-16T03:31:30;0.65;;;0.32;;
33188;SDS011;52601;53.070;10.600;2022-10-16T03:34:15;0.87;;;0.40;;
33188;SDS011;52601;53.070;10.600;2022-10-16T03:37:01;1.00;;;0.60;;
33188;SDS011;52601;53.070;10.600;2022-10-16T03:39:47;1.40;;;0.60;;
33188;SDS011;52601;53.070;10.600;2022-10-16T03:42:32;3.30;;;1.23;;
33188;SDS011;52601;53.070;10.600;2022-10-16T03:45:17;2.00;;;0.40;;
33188;SDS011;52601;53.070;10.600;2022-10-16T03:48:03;0.47;;;0.47;;
33188;SDS011;52601;53.070;10.600;2022-10-16T03:50:48;1.42;;;0.60;;
33188;SDS011;52601;53.070;10.600;2022-10-16T03:53:35;2.90;;;1.15;;
33188;SDS011;52601;53.070;10.600;2022-10-16T03:56:20;0.73;;;0.60;;
33188;SDS011;52601;53.070;10.600;2022-10-16T03:59:06;1.47;;;0.67;;
33188;SDS011;52601;53.070;10.600;2022-10-16T04:01:51;1.08;;;0.60;;
33188;SDS011;52601;53.070;10.600;2022-10-16T04:04:37;1.67;;;0.63;;
33188;SDS011;52601;53.070;10.600;2022-10-16T04:07:22;2.08;;;0.77;;
33188;SDS011;52601;53.070;10.600;2022-10-16T04:10:08;1.38;;;0.60;;
33188;SDS011;52601;53.070;10.600;2022-10-16T04:12:53;1.63;;;0.80;;
33188;SDS011;52601;53.070;10.600;2022-10-16T04:15:41;3.27;;;0.80;;
33188;SDS011;52601;53.070;10.600;2022-10-16T04:18:26;2.57;;;1.13;;
33188;SDS011;52601;53.070;10.600;2022-10-16T04:21:12;8.20;;;0.60;;
33188;SDS011;52601;53.070;10.600;2022-10-16T04:23:57;1.17;;;0.80;;
33188;SDS011;52601;53.070;10.600;2022-10-16T04:26:43;2.30;;;0.82;;
33188;SDS011;52601;53.070;10.600;2022-10-16T04:29:28;4.20;;;1.25;;
33188;SDS011;52601;53.070;10.600;2022-10-16T04:32:14;4.00;;;0.60;;
33188;SDS011;52601;53.070;10.600;2022-10-16T04:34:59;2.42;;;0.70;;
33188;SDS011;52601;53.070;10.600;2022-10-16T04:37:45;1.90;;;0.83;;
33188;SDS011;52601;53.070;10.600;2022-10-16T04:40:30;0.93;;;0.60;;
33188;SDS011;52601;53.070;10.600;2022-10-16T04:43:21;2.10;;;1.10;;
33188;SDS011;52601;53.070;10.600;2022-10-16T04:46:07;1.50;;;0.98;;
33188;SDS011;52601;53.070;10.600;2022-10-16T04:48:53;4.10;;;1.17;;
33188;SDS011;52601;53.070;10.600;2022-10-16T04:51:38;1.60;;;0.80;;
33188;SDS011;52601;53.070;10.600;2022-10-16T04:54:24;0.95;;;0.85;;
33188;SDS011;52601;53.070;10.600;2022-10-16T04:57:10;5.10;;;1.50;;
33188;SDS011;52601;53.070;10.600;2022-10-16T04:59:56;3.22;;;1.00;;
33188;SDS011;52601;53.070;10.600;2022-10-16T05:02:41;2.92;;;0.80;;
33188;SDS011;52601;53.070;10.600;2022-10-16T05:05:27;1.70;;;0.90;;
33188;SDS011;52601;53.070;10.600;2022-10-16T05:08:13;1.73;;;1.00;;
33188;SDS011;52601;53.070;10.600;2022-10-16T05:11:00;1.67;;;0.90;;
33188;SDS011;52601;53.070;10.600;2022-10-16T05:13:46;1.52;;;0.90;;
33188;SDS011;52601;53.070;10.600;2022-10-16T05:16:36;2.17;;;0.97;;
33188;SDS011;52601;53.070;10.600;2022-10-16T05:19:21;2.92;;;0.90;;
33188;SDS011;52601;53.070;10.600;2022-10-16T05:22:12;3.60;;;0.90;;
33188;SDS011;52601;53.070;10.600;2022-10-16T05:24:57;3.03;;;1.10;;
33188;SDS011;52601;53.070;10.600;2022-10-16T05:27:43;1.67;;;0.80;;
33188;SDS011;52601;53.070;10.600;2022-10-16T05:30:28;1.27;;;0.77;;
33188;SDS011;52601;53.070;10.600;2022-10-16T05:33:14;0.88;;;0.73;;
33188;SDS011;52601;53.070;10.600;2022-10-16T05:36:03;5.70;;;1.15;;
33188;SDS011;52601;53.070;10.600;2022-10-16T05:38:50;1.05;;;0.80;;
33188;SDS011;52601;53.070;10.600;2022-10-16T05:41:36;1.40;;;0.75;;
33188;SDS011;52601;53.070;10.600;2022-10-16T05:44:21;1.73;;;1.08;;
33188;SDS011;52601;53.070;10.600;2022-10-16T05:47:07;1.57;;;1.00;;
33188;SDS011;52601;53.070;10.600;2022-10-16T05:49:52;2.53;;;0.65;;
33188;SDS011;52601;53.070;10.600;2022-10-16T05:52:38;3.00;;;0.80;;
33188;SDS011;52601;53.070;10.600;2022-10-16T05:55:23;2.40;;;1.10;;
33188;SDS011;52601;53.070;10.600;2022-10-16T05:58:09;6.73;;;1.00;;
33188;SDS011;52601;53.070;10.600;2022-10-16T06:00:55;2.22;;;0.77;;
33188;SDS011;52601;53.070;10.600;2022-10-16T06:03:42;1.67;;;0.80;;
33188;SDS011;52601;53.070;10.600;2022-10-16T06:06:27;1.50;;;0.70;;
33188;SDS011;52601;53.070;10.600;2022-10-16T06:09:13;3.78;;;0.80;;
33188;SDS011;52601;53.070;10.600;2022-10-16T06:11:59;3.40;;;0.90;;
33188;SDS011;52601;53.070;10.600;2022-10-16T06:14:45;2.53;;;0.70;;
33188;SDS011;52601;53.070;10.600;2022-10-16T06:17:34;1.30;;;0.70;;
33188;SDS011;52601;53.070;10.600;2022-10-16T06:20:19;2.47;;;0.90;;
33188;SDS011;52601;53.070;10.600;2022-10-16T06:23:05;1.65;;;0.70;;
33188;SDS011;52601;53.070;10.600;2022-10-16T06:25:50;1.77;;;0.80;;
33188;SDS011;52601;53.070;10.600;2022-10-16T06:28:36;5.18;;;1.38;;
33188;SDS011;52601;53.070;10.600;2022-10-16T06:31:22;1.52;;;0.98;;
33188;SDS011;52601;53.070;10.600;2022-10-16T06:34:10;1.27;;;0.98;;
33188;SDS011;52601;53.070;10.600;2022-10-16T06:36:56;2.60;;;1.00;;
33188;SDS011;52601;53.070;10.600;2022-10-16T06:39:41;2.70;;;1.10;;
33188;SDS011;52601;53.070;10.600;2022-10-16T06:42:27;2.30;;;1.23;;
33188;SDS011;52601;53.070;10.600;2022-10-16T06:45:13;4.50;;;1.30;;
33188;SDS011;52601;53.070;10.600;2022-10-16T06:47:59;3.05;;;1.08;;
33188;SDS011;52601;53.070;10.600;2022-10-16T06:50:49;1.67;;;1.23;;
33188;SDS011;52601;53.070;10.600;2022-10-16T06:53:44;2.60;;;1.30;;
33188;SDS011;52601;53.070;10.600;2022-10-16T06:56:48;2.45;;;1.35;;
33188;SDS011;52601;53.070;10.600;2022-10-16T06:59:34;2.08;;;1.17;;
33188;SDS011;52601;53.070;10.600;2022-10-16T07:02:19;2.85;;;1.60;;
33188;SDS011;52601;53.070;10.600;2022-10-16T07:05:04;1.98;;;1.02;;
33188;SDS011;52601;53.070;10.600;2022-10-16T07:07:50;2.25;;;0.93;;
33188;SDS011;52601;53.070;10.600;2022-10-16T07:10:36;2.00;;;0.80;;
33188;SDS011;52601;53.070;10.600;2022-10-16T07:13:22;3.53;;;1.00;;
33188;SDS011;52601;53.070;10.600;2022-10-16T07:16:08;2.63;;;1.20;;
33188;SDS011;52601;53.070;10.600;2022-10-16T07:18:56;2.13;;;0.90;;
33188;SDS011;52601;53.070;10.600;2022-10-16T07:21:45;2.70;;;1.20;;
33188;SDS011;52601;53.070;10.600;2022-10-16T07:24:30;2.30;;;1.10;;
33188;SDS011;52601;53.070;10.600;2022-10-16T07:27:15;2.95;;;0.80;;
33188;SDS011;52601;53.070;10.600;2022-10-16T07:30:02;1.30;;;0.80;;
33188;SDS011;52601;53.070;10.600;2022-10-16T07:32:53;3.70;;;1.27;;
33188;SDS011;52601;53.070;10.600;2022-10-16T07:35:46;1.50;;;1.17;;
33188;SDS011;52601;53.070;10.600;2022-10-16T07:38:33;3.30;;;1.23;;
33188;SDS011;52601;53.070;10.600;2022-10-16T07:41:19;1.95;;;1.10;;
33188;SDS011;52601;53.070;10.600;2022-10-16T07:44:04;2.85;;;1.20;;
33188;SDS011;52601;53.070;10.600;2022-10-16T07:46:51;2.40;;;1.00;;
33188;SDS011;52601;53.070;10.600;2022-10-16T07:49:36;2.70;;;0.73;;
33188;SDS011;52601;53.070;10.600;2022-10-16T07:52:22;5.05;;;0.98;;
33188;SDS011;52601;53.070;10.600;2022-10-16T07:55:08;1.08;;;0.65;;
33188;SDS011;52601;53.070;10.600;2022-10-16T07:57:54;1.45;;;0.70;;
33188;SDS011;52601;53.070;10.600;2022-10-16T08:00:40;1.02;;;0.63;;
33188;SDS011;52601;53.070;10.600;2022-10-16T08:03:25;1.70;;;0.70;;
33188;SDS011;52601;53.070;10.600;2022-10-16T08:06:11;0.90;;;0.65;;
33188;SDS011;52601;53.070;10.600;2022-10-16T08:08:56;0.75;;;0.70;;
33188;SDS011;52601;53.070;10.600;2022-10-16T08:11:42;1.83;;;0.55;;
33188;SDS011;52601;53.070;10.600;2022-10-16T08:14:27;2.03;;;0.75;;
33188;SDS011;52601;53.070;10.600;2022-10-16T08:17:13;0.70;;;0.50;;
33188;SDS011;52601;53.070;10.600;2022-10-16T08:19:59;1.73;;;0.60;;
33188;SDS011;52601;53.070;10.600;2022-10-16T08:22:44;0.90;;;0.57;;
33188;SDS011;52601;53.070;10.600;2022-10-16T08:25:30;2.20;;;0.70;;
33188;SDS011;52601;53.070;10.600;2022-10-16T08:28:15;0.93;;;0.52;;
33188;SDS011;52601;53.070;10.600;2022-10-16T08:31:05;1.02;;;0.60;;
33188;SDS011;52601;53.070;10.600;2022-10-16T08:34:01;0.88;;;0.50;;
33188;SDS011;52601;53.070;10.600;2022-10-16T08:36:47;1.42;;;0.60;;
33188;SDS011;52601;53.070;10.600;2022-10-16T08:39:32;1.27;;;0.37;;
33188;SDS011;52601;53.070;10.600;2022-10-16T08:42:21;1.80;;;0.70;;
33188;SDS011;52601;53.070;10.600;2022-10-16T08:45:30;0.57;;;0.30;;
33188;SDS011;52601;53.070;10.600;2022-10-16T08:48:32;0.77;;;0.40;;
33188;SDS011;52601;53.070;10.600;2022-10-16T08:51:31;0.55;;;0.40;;
33188;SDS011;52601;53.070;10.600;2022-10-16T08:54:37;0.32;;;0.30;;
33188;SDS011;52601;53.070;10.600;2022-10-16T08:57:27;0.90;;;0.40;;
33188;SDS011;52601;53.070;10.600;2022-10-16T09:00:13;2.00;;;0.30;;
33188;SDS011;52601;53.070;10.600;2022-10-16T09:06:08;0.60;;;0.10;;
33188;SDS011;52601;53.070;10.600;2022-10-16T09:21:09;1.07;;;0.30;;
33188;SDS011;52601;53.070;10.600;2022-10-16T09:24:07;1.30;;;0.30;;
33188;SDS011;52601;53.070;10.600;2022-10-16T09:26:57;1.48;;;0.30;;
33188;SDS011;52601;53.070;10.600;2022-10-16T09:29:42;0.85;;;0.20;;
33188;SDS011;52601;53.070;10.600;2022-10-16T09:32:28;3.08;;;0.30;;
33188;SDS011;52601;53.070;10.600;2022-10-16T09:35:15;0.50;;;0.30;;
33188;SDS011;52601;53.070;10.600;2022-10-16T09:38:02;0.80;;;0.30;;
33188;SDS011;52601;53.070;10.600;2022-10-16T09:40:48;0.50;;;0.32;;
33188;SDS011;52601;53.070;10.600;2022-10-16T09:43:48;0.85;;;0.10;;
33188;SDS011;52601;53.070;10.600;2022-10-16T09:46:39;0.30;;;0.22;;
33188;SDS011;52601;53.070;10.600;2022-10-16T09:49:26;0.40;;;0.20;;
33188;SDS011;52601;53.070;10.600;2022-10-16T09:52:13;0.80;;;0.40;;
33188;SDS011;52601;53.070;10.600;2022-10-16T09:55:01;3.00;;;0.30;;
33188;SDS011;52601;53.070;10.600;2022-10-16T09:57:51;0.30;;;0.30;;
33188;SDS011;52601;53.070;10.600;2022-10-16T10:00:40;1.50;;;0.20;;
33188;SDS011;52601;53.070;10.600;2022-10-16T10:06:30;0.47;;;0.30;;
33188;SDS011;52601;53.070;10.600;2022-10-16T10:09:22;1.20;;;0.30;;
33188;SDS011;52601;53.070;10.600;2022-10-16T10:12:19;2.60;;;0.40;;
33188;SDS011;52601;53.070;10.600;2022-10-16T10:15:11;1.30;;;0.27;;
33188;SDS011;52601;53.070;10.600;2022-10-16T10:17:58;1.35;;;0.30;;
33188;SDS011;52601;53.070;10.600;2022-10-16T10:20:44;2.17;;;0.50;;
33188;SDS011;52601;53.070;10.600;2022-10-16T10:23:30;0.20;;;0.20;;
33188;SDS011;52601;53.070;10.600;2022-10-16T10:26:18;1.10;;;0.30;;
33188;SDS011;52601;53.070;10.600;2022-10-16T10:29:15;1.50;;;0.30;;
33188;SDS011;52601;53.070;10.600;2022-10-16T10:35:05;0.55;;;0.20;;
33188;SDS011;52601;53.070;10.600;2022-10-16T10:41:33;0.30;;;0.20;;
33188;SDS011;52601;53.070;10.600;2022-10-16T10:47:52;1.15;;;0.30;;
33188;SDS011;52601;53.070;10.600;2022-10-16T10:51:09;4.80;;;0.30;;
33188;SDS011;52601;53.070;10.600;2022-10-16T10:57:33;0.83;;;0.30;;
33188;SDS011;52601;53.070;10.600;2022-10-16T11:00:59;0.65;;;0.25;;
33188;SDS011;52601;53.070;10.600;2022-10-16T11:04:04;0.90;;;0.47;;
33188;SDS011;52601;53.070;10.600;2022-10-16T11:06:59;0.50;;;0.30;;
33188;SDS011;52601;53.070;10.600;2022-10-16T11:09:53;0.45;;;0.20;;
33188;SDS011;52601;53.070;10.600;2022-10-16T11:12:44;1.02;;;0.38;;
33188;SDS011;52601;53.070;10.600;2022-10-16T11:15:35;0.60;;;0.22;;
33188;SDS011;52601;53.070;10.600;2022-10-16T11:18:26;2.60;;;0.43;;
33188;SDS011;52601;53.070;10.600;2022-10-16T11:21:18;1.25;;;0.43;;
33188;SDS011;52601;53.070;10.600;2022-10-16T11:24:09;1.30;;;0.43;;
33188;SDS011;52601;53.070;10.600;2022-10-16T11:27:07;1.15;;;0.38;;
33188;SDS011;52601;53.070;10.600;2022-10-16T11:29:58;1.88;;;0.50;;
33188;SDS011;52601;53.070;10.600;2022-10-16T11:39:03;0.73;;;0.40;;
33188;SDS011;52601;53.070;10.600;2022-10-16T11:41:54;1.05;;;0.38;;
33188;SDS011;52601;53.070;10.600;2022-10-16T11:50:58;3.40;;;0.45;;
33188;SDS011;52601;53.070;10.600;2022-10-16T11:53:59;1.20;;;0.30;;
33188;SDS011;52601;53.070;10.600;2022-10-16T11:57:07;0.60;;;0.50;;
33188;SDS011;52601;53.070;10.600;2022-10-16T11:59:58;0.70;;;0.25;;
33188;SDS011;52601;53.070;10.600;2022-10-16T12:03:05;1.02;;;0.40;;
33188;SDS011;52601;53.070;10.600;2022-10-16T12:06:02;4.07;;;0.90;;
33188;SDS011;52601;53.070;10.600;2022-10-16T12:08:51;1.60;;;0.50;;
33188;SDS011;52601;53.070;10.600;2022-10-16T12:11:38;0.30;;;0.30;;
33188;SDS011;52601;53.070;10.600;2022-10-16T12:22:58;1.30;;;0.50;;
33188;SDS011;52601;53.070;10.600;2022-10-16T12:25:53;0.85;;;0.20;;
33188;SDS011;52601;53.070;10.600;2022-10-16T12:28:40;0.55;;;0.30;;
33188;SDS011;52601;53.070;10.600;2022-10-16T12:31:35;0.80;;;0.32;;
33188;SDS011;52601;53.070;10.600;2022-10-16T12:34:42;2.70;;;0.60;;
33188;SDS011;52601;53.070;10.600;2022-10-16T12:37:33;0.73;;;0.30;;
33188;SDS011;52601;53.070;10.600;2022-10-16T12:40:28;1.43;;;0.40;;
33188;SDS011;52601;53.070;10.600;2022-10-16T12:43:25;1.00;;;0.38;;
33188;SDS011;52601;53.070;10.600;2022-10-16T12:46:23;0.80;;;0.40;;
33188;SDS011;52601;53.070;10.600;2022-10-16T12:49:22;0.55;;;0.30;;
33188;SDS011;52601;53.070;10.600;2022-10-16T12:52:31;1.30;;;0.65;;
33188;SDS011;52601;53.070;10.600;2022-10-16T12:55:22;2.08;;;0.40;;
33188;SDS011;52601;53.070;10.600;2022-10-16T12:58:13;2.15;;;0.60;;
33188;SDS011;52601;53.070;10.600;2022-10-16T13:04:22;0.50;;;0.40;;
33188;SDS011;52601;53.070;10.600;2022-10-16T13:07:26;0.70;;;0.50;;
33188;SDS011;52601;53.070;10.600;2022-10-16T13:10:30;4.57;;;0.60;;
33188;SDS011;52601;53.070;10.600;2022-10-16T13:13:59;2.25;;;0.50;;
33188;SDS011;52601;53.070;10.600;2022-10-16T13:16:50;0.47;;;0.47;;
33188;SDS011;52601;53.070;10.600;2022-10-16T13:29:02;0.75;;;0.30;;
33188;SDS011;52601;53.070;10.600;2022-10-16T13:31:48;1.20;;;0.40;;
33188;SDS011;52601;53.070;10.600;2022-10-16T13:34:41;1.58;;;0.38;;
33188;SDS011;52601;53.070;10.600;2022-10-16T13:37:30;1.30;;;0.25;;
33188;SDS011;52601;53.070;10.600;2022-10-16T13:43:07;1.50;;;0.40;;
33188;SDS011;52601;53.070;10.600;2022-10-16T13:48:56;2.25;;;0.38;;
33188;SDS011;52601;53.070;10.600;2022-10-16T13:51:57;1.45;;;0.40;;
33188;SDS011;52601;53.070;10.600;2022-10-16T13:54:44;5.10;;;0.50;;
33188;SDS011;52601;53.070;10.600;2022-10-16T13:57:30;0.50;;;0.30;;
33188;SDS011;52601;53.070;10.600;2022-10-16T14:00:20;0.65;;;0.30;;
33188;SDS011;52601;53.070;10.600;2022-10-16T14:03:12;0.80;;;0.43;;
33188;SDS011;52601;53.070;10.600;2022-10-16T14:06:01;2.22;;;0.50;;
33188;SDS011;52601;53.070;10.600;2022-10-16T14:08:50;2.13;;;0.40;;
33188;SDS011;52601;53.070;10.600;2022-10-16T14:11:51;1.50;;;0.50;;
33188;SDS011;52601;53.070;10.600;2022-10-16T14:14:41;0.70;;;0.20;;
33188;SDS011;52601;53.070;10.600;2022-10-16T14:17:30;0.80;;;0.50;;
33188;SDS011;52601;53.070;10.600;2022-10-16T14:20:18;1.13;;;0.40;;
33188;SDS011;52601;53.070;10.600;2022-10-16T14:23:19;1.40;;;0.43;;
33188;SDS011;52601;53.070;10.600;2022-10-16T14:29:11;0.70;;;0.30;;
33188;SDS011;52601;53.070;10.600;2022-10-16T14:32:06;0.43;;;0.30;;
33188;SDS011;52601;53.070;10.600;2022-10-16T14:35:22;1.30;;;0.50;;
33188;SDS011;52601;53.070;10.600;2022-10-16T14:38:18;2.00;;;0.40;;
33188;SDS011;52601;53.070;10.600;2022-10-16T14:41:05;4.05;;;0.55;;
33188;SDS011;52601;53.070;10.600;2022-10-16T14:43:52;0.70;;;0.30;;
33188;SDS011;52601;53.070;10.600;2022-10-16T14:46:40;0.85;;;0.65;;
33188;SDS011;52601;53.070;10.600;2022-10-16T14:49:27;0.95;;;0.40;;
33188;SDS011;52601;53.070;10.600;2022-10-16T14:52:13;0.95;;;0.43;;
33188;SDS011;52601;53.070;10.600;2022-10-16T14:54:59;0.83;;;0.30;;
33188;SDS011;52601;53.070;10.600;2022-10-16T14:57:45;0.60;;;0.28;;
33188;SDS011;52601;53.070;10.600;2022-10-16T15:00:31;2.53;;;0.70;;
33188;SDS011;52601;53.070;10.600;2022-10-16T15:03:17;0.80;;;0.30;;
33188;SDS011;52601;53.070;10.600;2022-10-16T15:06:02;1.00;;;0.43;;
33188;SDS011;52601;53.070;10.600;2022-10-16T15:08:47;1.13;;;0.40;;
33188;SDS011;52601;53.070;10.600;2022-10-16T15:11:33;0.45;;;0.30;;
33188;SDS011;52601;53.070;10.600;2022-10-16T15:14:19;0.73;;;0.30;;
33188;SDS011;52601;53.070;10.600;2022-10-16T15:17:04;0.93;;;0.35;;
33188;SDS011;52601;53.070;10.600;2022-10-16T15:19:50;1.37;;;0.40;;
33188;SDS011;52601;53.070;10.600;2022-10-16T15:22:36;0.45;;;0.32;;
33188;SDS011;52601;53.070;10.600;2022-10-16T15:25:29;1.55;;;0.50;;
33188;SDS011;52601;53.070;10.600;2022-10-16T15:28:18;0.75;;;0.30;;
33188;SDS011;52601;53.070;10.600;2022-10-16T15:31:05;1.48;;;0.50;;
33188;SDS011;52601;53.070;10.600;2022-10-16T15:33:51;0.53;;;0.20;;
33188;SDS011;52601;53.070;10.600;2022-10-16T15:36:39;0.90;;;0.50;;
33188;SDS011;52601;53.070;10.600;2022-10-16T15:39:25;1.15;;;0.45;;
33188;SDS011;52601;53.070;10.600;2022-10-16T15:42:10;1.45;;;0.40;;
33188;SDS011;52601;53.070;10.600;2022-10-16T15:44:56;0.50;;;0.40;;
33188;SDS011;52601;53.070;10.600;2022-10-16T15:47:41;1.05;;;0.40;;
33188;SDS011;52601;53.070;10.600;2022-10-16T15:50:30;4.35;;;0.30;;
33188;SDS011;52601;53.070;10.600;2022-10-16T15:53:16;2.97;;;0.40;;
33188;SDS011;52601;53.070;10.600;2022-10-16T15:56:02;1.20;;;0.43;;
33188;SDS011;52601;53.070;10.600;2022-10-16T15:58:52;2.40;;;0.73;;
33188;SDS011;52601;53.070;10.600;2022-10-16T16:01:39;0.98;;;0.45;;
33188;SDS011;52601;53.070;10.600;2022-10-16T16:04:24;2.90;;;0.75;;
33188;SDS011;52601;53.070;10.600;2022-10-16T16:07:27;1.45;;;0.50;;
33188;SDS011;52601;53.070;10.600;2022-10-16T16:10:12;3.30;;;0.70;;
33188;SDS011;52601;53.070;10.600;2022-10-16T16:12:58;1.35;;;0.30;;
33188;SDS011;52601;53.070;10.600;2022-10-16T16:15:44;1.00;;;0.50;;
33188;SDS011;52601;53.070;10.600;2022-10-16T16:18:29;2.90;;;0.70;;
33188;SDS011;52601;53.070;10.600;2022-10-16T16:21:15;0.32;;;0.20;;
33188;SDS011;52601;53.070;10.600;2022-10-16T16:24:00;2.40;;;0.63;;
33188;SDS011;52601;53.070;10.600;2022-10-16T16:26:52;2.80;;;0.85;;
33188;SDS011;52601;53.070;10.600;2022-10-16T16:29:38;1.77;;;0.47;;
33188;SDS011;52601;53.070;10.600;2022-10-16T16:32:23;1.00;;;0.30;;
33188;SDS011;52601;53.070;10.600;2022-10-16T16:35:09;4.20;;;0.90;;
33188;SDS011;52601;53.070;10.600;2022-10-16T16:37:54;1.10;;;0.40;;
33188;SDS011;52601;53.070;10.600;2022-10-16T16:40:40;3.43;;;0.60;;
33188;SDS011;52601;53.070;10.600;2022-10-16T16:43:26;2.10;;;0.60;;
33188;SDS011;52601;53.070;10.600;2022-10-16T16:46:12;1.83;;;0.47;;
33188;SDS011;52601;53.070;10.600;2022-10-16T16:48:59;0.50;;;0.40;;
33188;SDS011;52601;53.070;10.600;2022-10-16T16:51:45;1.30;;;0.57;;
33188;SDS011;52601;53.070;10.600;2022-10-16T16:54:31;2.00;;;0.50;;
33188;SDS011;52601;53.070;10.600;2022-10-16T16:57:21;1.02;;;0.60;;
33188;SDS011;52601;53.070;10.600;2022-10-16T17:00:07;1.77;;;0.57;;
33188;SDS011;52601;53.070;10.600;2022-10-16T17:02:53;0.37;;;0.33;;
33188;SDS011;52601;53.070;10.600;2022-10-16T17:05:38;3.80;;;0.60;;
33188;SDS011;52601;53.070;10.600;2022-10-16T17:08:24;3.80;;;0.55;;
33188;SDS011;52601;53.070;10.600;2022-10-16T17:11:19;0.90;;;0.60;;
33188;SDS011;52601;53.070;10.600;2022-10-16T17:14:06;0.73;;;0.40;;
33188;SDS011;52601;53.070;10.600;2022-10-16T17:16:53;6.82;;;0.80;;
33188;SDS011;52601;53.070;10.600;2022-10-16T17:19:39;1.40;;;0.40;;
33188;SDS011;52601;53.070;10.600;2022-10-16T17:22:24;2.03;;;0.53;;
33188;SDS011;52601;53.070;10.600;2022-10-16T17:25:10;1.38;;;0.60;;
33188;SDS011;52601;53.070;10.600;2022-10-16T17:27:56;1.45;;;0.40;;
33188;SDS011;52601;53.070;10.600;2022-10-16T17:30:42;0.93;;;0.77;;
33188;SDS011;52601;53.070;10.600;2022-10-16T17:33:28;2.20;;;0.65;;
33188;SDS011;52601;53.070;10.600;2022-10-16T17:36:13;3.50;;;0.63;;
33188;SDS011;52601;53.070;10.600;2022-10-16T17:39:09;1.90;;;0.65;;
33188;SDS011;52601;53.070;10.600;2022-10-16T17:41:56;2.90;;;0.93;;
33188;SDS011;52601;53.070;10.600;2022-10-16T17:44:42;1.87;;;0.63;;
33188;SDS011;52601;53.070;10.600;2022-10-16T17:47:27;1.55;;;0.45;;
33188;SDS011;52601;53.070;10.600;2022-10-16T17:50:13;0.65;;;0.40;;
33188;SDS011;52601;53.070;10.600;2022-10-16T17:52:59;1.15;;;0.65;;
33188;SDS011;52601;53.070;10.600;2022-10-16T17:55:45;1.10;;;0.57;;
33188;SDS011;52601;53.070;10.600;2022-10-16T17:58:31;3.45;;;0.70;;
33188;SDS011;52601;53.070;10.600;2022-10-16T18:01:20;1.70;;;0.77;;
33188;SDS011;52601;53.070;10.600;2022-10-16T18:04:09;1.88;;;0.70;;
33188;SDS011;52601;53.070;10.600;2022-10-16T18:06:57;1.60;;;0.80;;
33188;SDS011;52601;53.070;10.600;2022-10-16T18:09:44;1.50;;;0.70;;
33188;SDS011;52601;53.070;10.600;2022-10-16T18:12:49;2.10;;;1.10;;